Time;durP1;ratioP1;P1;durP2;ratioP2;P2;SDS_P1;SDS_P2;PMS_P1;PMS_P2;Temp;Humidity;BMP_temperature;BMP_pressure;BME280_temperature;BME280_humidity;BME280_pressure;Samples;Min_cycle;Max_cycle;Signal;HPM_P1;HPM_P2
2021/06/14 00:01:59;;;;;;;3.23;2.70;;;14.60;99.90;;;;;;5032529;28;20428;-67
2021/06/14 00:04:25;;;;;;;2.50;2.30;;;14.60;99.90;;;;;;5034348;28;20176;-67
2021/06/14 00:06:51;;;;;;;2.90;2.13;;;14.50;99.90;;;;;;5033764;28;20611;-68
2021/06/14 00:09:21;;;;;;;2.60;2.40;;;14.40;99.90;;;;;;5036304;28;20179;-67
2021/06/14 00:11:47;;;;;;;3.40;3.10;;;14.30;99.90;;;;;;5018539;28;20263;-67
2021/06/14 00:14:12;;;;;;;5.13;2.67;;;14.30;99.90;;;;;;5036203;28;20436;-67
2021/06/14 00:16:38;;;;;;;2.33;2.10;;;14.20;99.90;;;;;;5019046;28;20428;-68
2021/06/14 00:19:05;;;;;;;2.40;2.00;;;14.20;99.90;;;;;;5034788;28;20630;-68
2021/06/14 00:21:31;;;;;;;2.80;2.60;;;14.20;99.90;;;;;;5031598;28;20183;-67
2021/06/14 00:23:57;;;;;;;2.30;1.97;;;14.10;99.90;;;;;;5015600;28;20421;-68
2021/06/14 00:26:23;;;;;;;2.57;2.37;;;14.00;99.90;;;;;;5013652;28;20256;-68
2021/06/14 00:28:48;;;;;;;2.93;2.73;;;14.00;99.90;;;;;;5014954;28;20234;-67
2021/06/14 00:31:14;;;;;;;2.70;2.50;;;13.90;99.90;;;;;;5013424;28;20403;-68
2021/06/14 00:33:40;;;;;;;2.73;2.20;;;13.90;99.90;;;;;;5014116;28;20171;-69
2021/06/14 00:36:08;;;;;;;2.80;2.60;;;13.80;99.90;;;;;;5031991;28;20205;-69
2021/06/14 00:38:34;;;;;;;2.17;2.00;;;13.80;99.90;;;;;;5033181;28;20461;-69
2021/06/14 00:41:00;;;;;;;6.43;2.33;;;13.70;99.90;;;;;;5033626;28;20406;-69
2021/06/14 00:43:26;;;;;;;2.40;2.20;;;13.70;99.90;;;;;;5033632;28;20456;-69
2021/06/14 00:45:53;;;;;;;2.20;2.00;;;13.80;99.90;;;;;;5027195;28;20608;-68
2021/06/14 00:48:19;;;;;;;3.70;2.40;;;13.80;99.90;;;;;;4996991;28;20458;-67
2021/06/14 00:50:47;;;;;;;3.23;2.63;;;13.80;99.90;;;;;;4996295;28;20952;-68
2021/06/14 00:53:28;;;;;;;2.60;2.37;;;13.90;99.90;;;;;;5030064;28;20419;-67
2021/06/14 00:55:54;;;;;;;4.93;2.80;;;13.80;99.90;;;;;;5033155;28;20398;-69
2021/06/14 00:58:20;;;;;;;3.00;2.70;;;13.80;99.90;;;;;;5033165;28;20582;-68
2021/06/14 01:00:46;;;;;;;2.47;2.30;;;13.80;99.90;;;;;;5033352;28;20488;-68
2021/06/14 01:03:12;;;;;;;3.53;2.50;;;13.80;99.90;;;;;;5031657;28;20433;-68
2021/06/14 01:05:44;;;;;;;2.97;2.67;;;13.70;99.90;;;;;;5033053;28;20467;-68
2021/06/14 01:08:11;;;;;;;2.88;2.60;;;13.70;99.90;;;;;;5031385;28;20210;-68
2021/06/14 01:10:41;;;;;;;3.17;2.77;;;13.70;99.90;;;;;;5033355;28;20656;-68
2021/06/14 01:13:40;;;;;;;4.55;2.80;;;13.70;99.90;;;;;;5017367;28;20423;-68
2021/06/14 01:16:19;;;;;;;2.63;2.42;;;13.60;99.90;;;;;;5020219;28;20179;-68
2021/06/14 01:19:07;;;;;;;5.30;3.28;;;13.60;99.90;;;;;;5033199;28;20198;-68
2021/06/14 01:21:41;;;;;;;2.88;2.63;;;13.60;99.90;;;;;;5032763;28;20179;-68
2021/06/14 01:24:34;;;;;;;2.87;2.43;;;13.70;99.90;;;;;;5013943;28;20179;-69
2021/06/14 01:27:06;;;;;;;3.03;2.70;;;13.80;99.90;;;;;;5032557;28;20839;-68
2021/06/14 01:29:34;;;;;;;3.10;2.80;;;13.80;99.90;;;;;;5033770;28;20171;-69
2021/06/14 01:32:01;;;;;;;2.87;2.57;;;13.70;99.90;;;;;;5033367;28;20236;-67
2021/06/14 01:34:29;;;;;;;4.78;2.70;;;13.70;99.90;;;;;;5033216;28;20881;-67
2021/06/14 01:37:00;;;;;;;3.53;2.97;;;13.70;99.90;;;;;;5031013;28;20188;-68
2021/06/14 01:39:29;;;;;;;3.00;2.72;;;13.70;99.90;;;;;;5033038;28;20425;-69
2021/06/14 01:41:56;;;;;;;4.87;2.67;;;13.50;99.90;;;;;;5029448;28;20201;-67
2021/06/14 01:44:23;;;;;;;4.40;2.50;;;13.50;99.90;;;;;;5019199;28;20410;-67
2021/06/14 01:46:51;;;;;;;4.65;2.85;;;13.40;99.90;;;;;;5000475;28;20975;-67
2021/06/14 01:49:19;;;;;;;3.05;2.75;;;13.40;99.90;;;;;;5016794;28;20294;-68
2021/06/14 01:51:45;;;;;;;3.07;2.43;;;13.40;99.90;;;;;;5017123;28;20229;-68
2021/06/14 01:54:11;;;;;;;3.67;2.30;;;13.40;99.90;;;;;;5016701;28;20423;-67
2021/06/14 01:56:43;;;;;;;2.60;2.40;;;13.30;99.90;;;;;;5016362;28;20738;-67
2021/06/14 01:59:13;;;;;;;3.83;2.80;;;13.30;99.90;;;;;;5016864;28;20770;-67
2021/06/14 02:01:40;;;;;;;4.07;2.85;;;13.30;99.90;;;;;;5017159;28;20493;-68
2021/06/14 02:04:06;;;;;;;3.40;3.10;;;13.20;99.90;;;;;;5017781;28;20211;-67
2021/06/14 02:06:39;;;;;;;8.10;2.80;;;13.20;99.90;;;;;;5036014;28;20172;-67
2021/06/14 02:09:14;;;;;;;2.60;2.40;;;13.10;99.90;;;;;;5036609;28;20660;-68
2021/06/14 02:11:42;;;;;;;3.83;2.70;;;13.10;99.90;;;;;;5030388;28;20483;-67
2021/06/14 02:14:13;;;;;;;5.00;3.38;;;13.00;99.90;;;;;;5016842;28;20167;-68
2021/06/14 02:16:39;;;;;;;9.02;2.80;;;13.00;99.90;;;;;;5016225;28;20176;-67
2021/06/14 02:19:07;;;;;;;2.80;2.60;;;12.90;99.90;;;;;;5016417;28;20657;-67
2021/06/14 02:21:32;;;;;;;3.97;3.00;;;12.90;99.90;;;;;;5016533;28;20405;-68
2021/06/14 02:23:58;;;;;;;6.27;4.13;;;12.80;99.90;;;;;;5016305;28;20191;-67
2021/06/14 02:26:24;;;;;;;3.03;2.80;;;12.80;99.90;;;;;;5021524;28;20189;-66
2021/06/14 02:28:49;;;;;;;3.43;2.50;;;12.80;99.90;;;;;;5036017;28;20215;-66
2021/06/14 02:31:15;;;;;;;2.70;2.30;;;12.80;99.90;;;;;;5035867;28;20567;-66
2021/06/14 02:33:42;;;;;;;5.68;2.85;;;12.80;99.90;;;;;;5035870;28;20171;-67
2021/06/14 02:36:08;;;;;;;5.30;2.80;;;12.80;99.90;;;;;;5035136;28;20171;-67
2021/06/14 02:38:35;;;;;;;3.23;2.93;;;12.70;99.90;;;;;;5035694;28;20225;-67
2021/06/14 02:41:01;;;;;;;2.58;2.35;;;12.70;99.90;;;;;;5021142;28;20450;-67
2021/06/14 02:43:27;;;;;;;3.40;2.27;;;12.60;99.90;;;;;;5015929;28;20182;-67
2021/06/14 02:45:53;;;;;;;4.17;2.87;;;12.60;99.90;;;;;;5015507;28;20418;-68
2021/06/14 02:48:20;;;;;;;2.90;2.70;;;12.60;99.90;;;;;;5015598;28;20463;-67
2021/06/14 02:50:47;;;;;;;3.80;3.50;;;12.60;99.90;;;;;;5030740;28;20170;-66
2021/06/14 02:53:14;;;;;;;2.80;2.53;;;12.50;99.90;;;;;;5035204;28;20179;-67
2021/06/14 02:56:07;;;;;;;2.67;2.55;;;12.50;99.90;;;;;;5035376;28;20163;-68
2021/06/14 02:58:42;;;;;;;5.15;2.85;;;12.50;99.90;;;;;;5035341;28;20194;-67
2021/06/14 03:01:09;;;;;;;2.78;2.20;;;12.50;99.90;;;;;;5035470;28;20258;-67
2021/06/14 03:03:39;;;;;;;2.15;2.05;;;12.50;99.90;;;;;;5035473;28;20178;-66
2021/06/14 03:06:06;;;;;;;3.10;2.13;;;12.60;99.90;;;;;;5032589;28;20249;-67
2021/06/14 03:08:35;;;;;;;4.55;2.80;;;12.60;99.90;;;;;;4997623;28;20238;-67
2021/06/14 03:11:01;;;;;;;4.05;2.72;;;12.60;99.90;;;;;;5029170;28;20309;-67
2021/06/14 03:13:26;;;;;;;3.93;3.50;;;12.60;99.90;;;;;;5035539;28;20195;-67
2021/06/14 03:15:52;;;;;;;11.07;3.07;;;12.50;99.90;;;;;;5029015;28;20264;-68
2021/06/14 03:18:22;;;;;;;3.13;2.57;;;12.50;99.90;;;;;;5015385;28;20209;-68
2021/06/14 03:20:48;;;;;;;3.15;2.88;;;12.50;99.90;;;;;;5015338;28;20242;-67
2021/06/14 03:23:17;;;;;;;3.20;2.90;;;12.40;99.90;;;;;;5015250;28;20201;-67
2021/06/14 03:25:43;;;;;;;3.50;3.10;;;12.40;99.90;;;;;;5019066;28;20562;-67
2021/06/14 03:28:09;;;;;;;2.70;2.50;;;12.40;99.90;;;;;;5034294;28;20190;-67
2021/06/14 03:30:38;;;;;;;4.20;2.93;;;12.30;99.90;;;;;;5034966;28;20406;-67
2021/06/14 03:33:06;;;;;;;6.95;3.25;;;12.30;99.90;;;;;;5034935;28;20814;-67
2021/06/14 03:35:33;;;;;;;4.47;2.92;;;12.30;99.90;;;;;;5034711;28;20162;-67
2021/06/14 03:37:59;;;;;;;7.35;3.20;;;12.30;99.90;;;;;;5029620;28;20590;-66
2021/06/14 03:40:24;;;;;;;3.70;2.77;;;12.30;99.90;;;;;;5014835;28;20217;-67
2021/06/14 03:42:55;;;;;;;3.53;2.90;;;12.40;99.90;;;;;;5015039;28;20179;-67
2021/06/14 03:45:21;;;;;;;3.25;2.95;;;12.60;99.90;;;;;;4997452;28;20217;-67
2021/06/14 03:47:51;;;;;;;5.57;2.90;;;12.80;99.90;;;;;;5014108;28;20242;-67
2021/06/14 03:50:17;;;;;;;3.03;2.78;;;12.90;99.90;;;;;;5031098;28;20616;-67
2021/06/14 03:52:43;;;;;;;3.40;3.10;;;12.90;99.90;;;;;;5034436;28;20171;-67
2021/06/14 03:55:11;;;;;;;3.40;3.10;;;12.90;99.90;;;;;;5016838;28;20197;-68
2021/06/14 03:57:37;;;;;;;3.85;3.10;;;12.80;99.90;;;;;;5034110;28;20210;-68
2021/06/14 04:00:06;;;;;;;3.10;2.60;;;12.70;99.90;;;;;;5034362;28;20178;-68
2021/06/14 04:02:32;;;;;;;6.00;3.60;;;12.80;99.90;;;;;;5034398;28;20562;-67
2021/06/14 04:04:58;;;;;;;2.23;2.10;;;12.70;99.90;;;;;;5017514;28;20182;-67
2021/06/14 04:07:24;;;;;;;2.60;2.35;;;12.60;99.90;;;;;;5013951;28;20194;-67
2021/06/14 04:09:50;;;;;;;3.50;3.20;;;12.60;99.90;;;;;;5032936;28;20183;-67
2021/06/14 04:12:16;;;;;;;4.18;3.25;;;12.70;99.90;;;;;;5009500;28;20794;-67
2021/06/14 04:14:42;;;;;;;2.70;2.50;;;12.80;99.90;;;;;;4996808;28;20179;-67
2021/06/14 04:17:09;;;;;;;3.50;2.77;;;13.00;99.90;;;;;;5013886;28;20837;-69
2021/06/14 04:19:36;;;;;;;2.80;2.60;;;13.30;99.90;;;;;;5014383;28;20814;-68
2021/06/14 04:22:02;;;;;;;4.60;1.80;;;13.70;99.90;;;;;;5014116;28;20415;-68
2021/06/14 04:24:28;;;;;;;3.10;2.27;;;14.30;99.90;;;;;;5014305;28;20424;-69
2021/06/14 04:26:53;;;;;;;2.80;2.00;;;14.90;99.90;;;;;;5013561;28;20455;-68
2021/06/14 04:29:19;;;;;;;2.07;1.97;;;15.60;99.90;;;;;;5013960;28;20279;-68
2021/06/14 04:31:45;;;;;;;3.40;3.10;;;16.20;99.90;;;;;;5014008;28;20163;-68
2021/06/14 04:34:10;;;;;;;2.20;2.00;;;16.70;99.90;;;;;;5013955;28;20167;-68
2021/06/14 04:36:36;;;;;;;2.40;2.20;;;16.90;99.90;;;;;;5013459;28;20203;-69
2021/06/14 04:39:03;;;;;;;3.10;2.90;;;17.00;99.90;;;;;;5026071;28;20554;-68
2021/06/14 04:41:29;;;;;;;2.77;2.07;;;17.00;99.90;;;;;;5019676;28;20423;-69
2021/06/14 04:43:55;;;;;;;3.83;2.40;;;16.80;99.90;;;;;;5013646;28;20761;-69
2021/06/14 04:46:21;;;;;;;2.53;2.37;;;16.60;99.90;;;;;;5013430;28;20174;-68
2021/06/14 04:48:47;;;;;;;3.03;2.47;;;16.30;99.90;;;;;;5013542;28;20210;-68
2021/06/14 04:51:12;;;;;;;2.70;2.40;;;16.10;99.90;;;;;;5022124;28;20423;-68
2021/06/14 04:53:40;;;;;;;2.33;2.23;;;16.10;99.90;;;;;;5033459;28;20166;-68
2021/06/14 04:56:06;;;;;;;2.60;2.40;;;16.00;99.90;;;;;;5033243;28;20248;-68
2021/06/14 04:58:31;;;;;;;3.13;1.80;;;16.10;99.90;;;;;;5033170;28;20467;-68
2021/06/14 05:00:57;;;;;;;2.40;2.20;;;16.10;99.90;;;;;;5026082;28;20416;-68
2021/06/14 05:03:23;;;;;;;2.60;2.40;;;16.10;99.90;;;;;;5013806;28;20166;-68
2021/06/14 05:05:48;;;;;;;3.00;2.53;;;16.10;99.90;;;;;;5020348;28;20181;-67
2021/06/14 05:08:18;;;;;;;2.13;2.03;;;16.10;99.90;;;;;;5032764;28;20455;-67
2021/06/14 05:10:47;;;;;;;1.97;1.87;;;16.10;99.90;;;;;;5033476;28;20501;-68
2021/06/14 05:13:13;;;;;;;3.00;2.27;;;16.10;99.90;;;;;;5033329;28;20393;-69
2021/06/14 05:15:39;;;;;;;3.17;2.97;;;16.10;99.90;;;;;;5014145;28;20424;-67
2021/06/14 05:18:05;;;;;;;4.00;3.07;;;16.00;99.90;;;;;;5017034;28;20195;-68
2021/06/14 05:20:30;;;;;;;3.47;2.30;;;15.90;99.90;;;;;;4999906;28;20190;-69
2021/06/14 05:22:59;;;;;;;2.60;2.30;;;16.00;99.90;;;;;;4999794;28;20413;-69
2021/06/14 05:25:25;;;;;;;4.40;2.40;;;16.00;99.90;;;;;;5017460;28;20181;-69
2021/06/14 05:27:51;;;;;;;4.00;2.50;;;16.10;99.90;;;;;;5016745;28;20476;-69
2021/06/14 05:30:17;;;;;;;2.50;2.30;;;16.30;99.90;;;;;;5018507;28;20499;-68
2021/06/14 05:32:44;;;;;;;2.87;2.47;;;16.40;99.90;;;;;;5037149;28;20749;-69
2021/06/14 05:35:11;;;;;;;2.60;2.33;;;16.60;99.90;;;;;;5037368;28;20478;-68
2021/06/14 05:37:37;;;;;;;3.67;2.30;;;16.80;99.90;;;;;;5036660;28;20432;-69
2021/06/14 05:40:08;;;;;;;2.87;2.67;;;17.00;99.90;;;;;;5035895;28;20752;-68
2021/06/14 05:42:34;;;;;;;3.07;2.27;;;17.30;99.90;;;;;;4999412;28;20417;-68
2021/06/14 05:45:01;;;;;;;2.00;1.90;;;17.40;99.90;;;;;;5017835;28;20468;-70
2021/06/14 05:47:27;;;;;;;2.90;2.70;;;17.60;99.80;;;;;;5016826;28;20460;-71
2021/06/14 05:49:52;;;;;;;2.40;2.30;;;17.80;99.10;;;;;;5036904;28;20409;-69
2021/06/14 05:52:18;;;;;;;2.63;2.43;;;18.00;98.10;;;;;;5018997;28;20275;-69
2021/06/14 05:54:44;;;;;;;2.03;1.83;;;18.30;97.60;;;;;;5036881;28;20203;-69
2021/06/14 05:57:10;;;;;;;1.80;1.70;;;18.80;96.20;;;;;;5034286;28;20436;-71
2021/06/14 05:59:37;;;;;;;2.43;2.23;;;19.10;95.20;;;;;;5036836;28;20491;-69
2021/06/14 06:02:07;;;;;;;2.03;1.93;;;19.30;94.40;;;;;;5018935;28;20421;-71
2021/06/14 06:04:33;;;;;;;2.07;1.80;;;19.20;95.70;;;;;;5016862;28;20414;-69
2021/06/14 06:06:59;;;;;;;2.07;1.90;;;19.20;95.40;;;;;;5016341;28;20465;-70
2021/06/14 06:09:25;;;;;;;2.60;2.20;;;19.20;94.30;;;;;;5016555;28;20459;-71
2021/06/14 06:11:50;;;;;;;2.10;1.90;;;19.10;94.20;;;;;;5016492;28;20879;-70
2021/06/14 06:14:16;;;;;;;1.97;1.83;;;19.10;94.20;;;;;;5016555;28;20170;-72
2021/06/14 06:16:42;;;;;;;1.60;1.50;;;19.00;94.20;;;;;;5015699;28;20510;-71
2021/06/14 06:19:08;;;;;;;3.17;2.50;;;19.00;94.20;;;;;;5016340;28;20182;-71
2021/06/14 06:21:34;;;;;;;1.90;1.80;;;19.00;94.20;;;;;;4998843;28;20189;-70
2021/06/14 06:24:00;;;;;;;3.07;1.77;;;18.90;94.20;;;;;;5023198;28;20424;-71
2021/06/14 06:26:26;;;;;;;1.73;1.57;;;18.80;94.40;;;;;;5017975;28;20179;-70
2021/06/14 06:28:52;;;;;;;3.50;1.87;;;18.80;94.50;;;;;;5035082;28;20532;-70
2021/06/14 06:31:18;;;;;;;2.43;2.17;;;18.80;94.40;;;;;;5035849;28;20415;-71
2021/06/14 06:33:44;;;;;;;2.30;1.80;;;18.90;94.10;;;;;;5029677;28;20412;-75
2021/06/14 06:36:10;;;;;;;2.37;2.17;;;19.00;95.00;;;;;;5024827;28;20706;-70
2021/06/14 06:38:36;;;;;;;2.00;1.90;;;19.10;94.40;;;;;;5024502;28;20212;-69
2021/06/14 06:41:03;;;;;;;2.03;1.93;;;19.20;94.40;;;;;;5033758;28;20430;-70
2021/06/14 06:43:29;;;;;;;2.30;2.13;;;19.10;94.20;;;;;;5015935;28;20408;-71
2021/06/14 06:45:54;;;;;;;2.77;2.07;;;19.10;94.50;;;;;;5001395;28;20428;-70
2021/06/14 06:48:20;;;;;;;2.07;1.97;;;19.20;94.50;;;;;;5030019;28;20706;-71
2021/06/14 06:50:46;;;;;;;2.90;2.33;;;19.30;94.30;;;;;;5030035;28;20188;-68
2021/06/14 06:53:12;;;;;;;3.53;2.27;;;19.40;94.00;;;;;;5031176;28;20238;-72
2021/06/14 06:55:38;;;;;;;2.50;2.30;;;19.50;93.70;;;;;;5035293;28;20401;-69
2021/06/14 06:58:04;;;;;;;3.70;1.90;;;19.60;94.20;;;;;;5032964;28;20201;-69
2021/06/14 07:00:30;;;;;;;3.33;2.00;;;19.70;93.90;;;;;;5035150;28;20182;-66
2021/06/14 07:02:57;;;;;;;3.37;2.17;;;19.90;93.30;;;;;;5031775;28;20501;-66
2021/06/14 07:05:23;;;;;;;2.00;1.90;;;20.00;93.90;;;;;;5034902;28;20807;-65
2021/06/14 07:07:48;;;;;;;1.67;1.57;;;20.10;93.60;;;;;;5034282;28;20458;-65
2021/06/14 07:10:17;;;;;;;1.70;1.60;;;20.30;93.70;;;;;;5028776;28;20796;-65
2021/06/14 07:12:43;;;;;;;2.80;1.50;;;20.40;92.80;;;;;;5015153;28;20171;-67
2021/06/14 07:15:11;;;;;;;4.50;2.07;;;20.50;92.70;;;;;;5024951;28;20784;-68
2021/06/14 07:17:44;;;;;;;2.37;2.17;;;20.60;92.70;;;;;;5029951;28;20443;-67
2021/06/14 07:20:12;;;;;;;2.00;1.83;;;20.70;92.50;;;;;;5031392;28;20412;-65
2021/06/14 07:22:39;;;;;;;2.23;1.90;;;21.00;92.30;;;;;;5015053;28;20414;-66
2021/06/14 07:25:07;;;;;;;2.13;2.00;;;21.50;92.00;;;;;;5027871;28;20416;-68
2021/06/14 07:27:33;;;;;;;2.10;1.97;;;22.10;91.50;;;;;;5017503;28;20488;-67
2021/06/14 07:30:00;;;;;;;2.00;1.90;;;22.80;90.60;;;;;;5015880;28;20509;-68
2021/06/14 07:32:26;;;;;;;1.77;1.67;;;23.60;89.50;;;;;;5034700;28;20432;-69
2021/06/14 07:34:52;;;;;;;1.83;1.73;;;24.40;84.30;;;;;;5034255;28;20791;-69
2021/06/14 07:37:20;;;;;;;2.23;2.03;;;25.20;83.40;;;;;;5014149;28;20430;-69
2021/06/14 07:39:46;;;;;;;1.83;1.73;;;26.30;79.10;;;;;;5014392;28;20216;-69
2021/06/14 07:42:13;;;;;;;2.13;1.97;;;27.60;73.10;;;;;;5034372;28;20926;-67
2021/06/14 07:44:39;;;;;;;2.13;2.03;;;28.60;70.70;;;;;;5020807;28;20414;-66
2021/06/14 07:47:05;;;;;;;2.77;2.57;;;29.70;65.90;;;;;;5032926;28;20433;-67
2021/06/14 07:49:31;;;;;;;2.37;2.23;;;30.70;59.90;;;;;;5029905;28;20514;-67
2021/06/14 07:51:57;;;;;;;3.30;3.03;;;31.10;57.60;;;;;;5034187;28;20171;-66
2021/06/14 07:54:23;;;;;;;1.80;1.70;;;31.40;57.60;;;;;;5031279;28;20620;-68
2021/06/14 07:56:49;;;;;;;2.17;2.07;;;31.70;56.80;;;;;;5018638;28;20767;-68
2021/06/14 07:59:15;;;;;;;4.30;3.90;;;32.00;56.10;;;;;;5022330;28;20216;-67
2021/06/14 08:01:41;;;;;;;1.93;1.80;;;32.60;54.80;;;;;;5020685;28;20395;-67
2021/06/14 08:04:08;;;;;;;2.10;2.00;;;33.20;53.60;;;;;;5023259;28;20418;-67
2021/06/14 08:06:34;;;;;;;2.03;1.80;;;33.50;52.80;;;;;;5015077;28;20427;-66
2021/06/14 08:09:02;;;;;;;2.13;2.03;;;33.90;52.20;;;;;;5033608;28;20427;-66
2021/06/14 08:11:29;;;;;;;2.57;2.37;;;33.90;50.30;;;;;;5033897;28;20437;-67
2021/06/14 08:13:55;;;;;;;2.13;2.03;;;34.20;49.30;;;;;;5033809;28;20770;-65
2021/06/14 08:16:21;;;;;;;2.20;2.07;;;34.30;47.90;;;;;;5033486;28;20401;-68
2021/06/14 08:18:50;;;;;;;2.27;2.07;;;34.70;48.70;;;;;;5033702;28;20201;-66
2021/06/14 08:26:28;;;;;;;2.10;2.00;;;34.60;46.50;;;;;;5016644;28;20257;-65
2021/06/14 08:28:56;;;;;;;2.10;2.00;;;34.90;46.90;;;;;;5013715;28;20464;-66
2021/06/14 08:31:23;;;;;;;1.80;1.70;;;35.00;46.40;;;;;;5024267;28;20409;-66
2021/06/14 08:33:49;;;;;;;1.73;1.63;;;34.90;46.70;;;;;;5025789;28;20422;-67
2021/06/14 08:36:14;;;;;;;2.40;2.20;;;35.10;46.10;;;;;;5011835;28;20413;-66
2021/06/14 08:38:40;;;;;;;1.80;1.70;;;35.40;45.60;;;;;;5026401;28;20213;-67
2021/06/14 08:41:06;;;;;;;2.27;2.00;;;35.20;45.30;;;;;;5033282;28;20171;-64
2021/06/14 08:43:32;;;;;;;2.60;2.40;;;35.10;46.50;;;;;;5032908;28;20577;-65
2021/06/14 08:45:58;;;;;;;2.10;2.00;;;34.80;45.80;;;;;;5032972;28;20174;-66
2021/06/14 08:48:25;;;;;;;2.00;1.90;;;34.60;46.10;;;;;;5015270;28;20432;-65
2021/06/14 08:50:51;;;;;;;2.80;2.60;;;34.90;45.50;;;;;;5032517;28;20182;-66
2021/06/14 08:53:17;;;;;;;2.13;2.00;;;34.60;45.30;;;;;;5032977;28;20474;-66
2021/06/14 08:55:45;;;;;;;2.73;2.53;;;34.80;45.70;;;;;;5032818;28;20425;-67
2021/06/14 08:58:11;;;;;;;3.23;3.03;;;35.30;44.90;;;;;;5015331;28;20730;-64
2021/06/14 09:00:37;;;;;;;3.60;2.60;;;35.50;44.60;;;;;;5033167;28;20474;-66
2021/06/14 09:03:03;;;;;;;3.23;2.93;;;35.90;44.20;;;;;;5031654;28;20177;-65
2021/06/14 09:05:29;;;;;;;2.53;2.40;;;35.70;43.90;;;;;;5013640;28;20175;-64
2021/06/14 09:08:00;;;;;;;2.70;2.50;;;36.00;43.70;;;;;;5013119;28;20435;-68
2021/06/14 09:10:28;;;;;;;2.27;2.17;;;36.20;43.40;;;;;;5018830;28;20185;-65
2021/06/14 09:13:08;;;;;;;2.30;2.20;;;36.30;43.50;;;;;;4996052;28;20501;-68
2021/06/14 09:15:34;;;;;;;2.40;2.30;;;36.20;43.30;;;;;;5013455;28;20406;-65
2021/06/14 09:18:00;;;;;;;2.47;2.37;;;36.10;43.10;;;;;;5014064;28;20450;-66
2021/06/14 09:20:27;;;;;;;2.67;2.50;;;36.40;42.90;;;;;;5029942;28;20190;-66
2021/06/14 09:22:54;;;;;;;2.20;2.00;;;36.60;42.50;;;;;;5032385;28;20259;-65
2021/06/14 09:25:20;;;;;;;2.30;2.20;;;37.00;42.00;;;;;;5032625;28;20408;-66
2021/06/14 09:27:52;;;;;;;2.60;2.40;;;37.00;41.30;;;;;;5031572;28;20437;-65
2021/06/14 09:30:22;;;;;;;2.83;2.30;;;36.60;41.60;;;;;;5033207;28;20405;-65
2021/06/14 09:32:53;;;;;;;2.27;2.07;;;36.40;42.10;;;;;;5032884;28;20395;-64
2021/06/14 09:35:20;;;;;;;2.53;2.00;;;36.70;41.40;;;;;;5032572;28;20961;-65
2021/06/14 09:38:19;;;;;;;2.23;2.13;;;37.20;41.40;;;;;;5032074;28;20452;-65
2021/06/14 09:40:51;;;;;;;1.83;1.73;;;37.60;40.20;;;;;;4989563;28;20891;-65
2021/06/14 09:43:29;;;;;;;2.60;2.50;;;37.60;40.10;;;;;;5032437;28;20405;-66
2021/06/14 09:45:57;;;;;;;2.40;2.30;;;38.10;40.00;;;;;;5032319;28;20883;-67
2021/06/14 09:48:27;;;;;;;3.50;2.30;;;38.10;38.80;;;;;;5031845;28;20421;-67
2021/06/14 09:50:55;;;;;;;3.10;2.80;;;38.10;38.70;;;;;;5031529;28;20418;-66
2021/06/14 09:53:23;;;;;;;2.50;2.40;;;37.50;39.10;;;;;;5032544;28;20776;-67
2021/06/14 09:55:51;;;;;;;2.37;2.27;;;37.00;39.20;;;;;;5032432;28;20447;-68
2021/06/14 09:58:26;;;;;;;2.63;2.53;;;37.00;39.00;;;;;;5032502;28;20448;-68
2021/06/14 10:00:58;;;;;;;2.10;2.00;;;36.80;38.00;;;;;;5015006;28;20396;-68
2021/06/14 10:03:39;;;;;;;2.63;2.50;;;36.60;39.20;;;;;;5033240;28;20444;-66
2021/06/14 10:06:05;;;;;;;2.03;1.93;;;36.80;40.00;;;;;;5035796;28;20413;-68
2021/06/14 10:08:32;;;;;;;2.57;2.37;;;37.10;38.80;;;;;;5036074;28;20524;-66
2021/06/14 10:11:11;;;;;;;2.60;2.50;;;37.60;38.90;;;;;;5018430;28;20232;-67
2021/06/14 10:13:42;;;;;;;2.10;2.00;;;37.70;38.50;;;;;;5036294;28;20423;-67
2021/06/14 10:16:13;;;;;;;2.30;2.20;;;37.80;39.10;;;;;;5035867;28;20412;-69
2021/06/14 10:18:45;;;;;;;2.30;2.17;;;37.50;38.20;;;;;;5035635;28;20459;-67
2021/06/14 10:21:31;;;;;;;2.50;2.30;;;37.30;38.60;;;;;;5017791;28;20435;-68
2021/06/14 10:24:00;;;;;;;2.10;2.00;;;37.20;37.30;;;;;;5031013;28;20423;-67
2021/06/14 10:26:27;;;;;;;2.20;2.10;;;36.40;37.70;;;;;;5035459;28;20405;-67
2021/06/14 10:28:53;;;;;;;1.97;1.87;;;36.10;38.10;;;;;;5035927;28;20819;-67
2021/06/14 10:31:21;;;;;;;2.40;2.20;;;35.90;38.20;;;;;;5035597;28;20417;-66
2021/06/14 10:33:48;;;;;;;2.30;2.20;;;35.80;39.30;;;;;;5016913;28;20421;-66
2021/06/14 10:36:15;;;;;;;2.40;2.20;;;35.30;39.30;;;;;;5035212;28;20464;-66
2021/06/14 10:38:44;;;;;;;2.20;2.10;;;35.10;39.50;;;;;;5017645;28;20447;-67
2021/06/14 10:41:10;;;;;;;1.90;1.80;;;34.50;39.70;;;;;;5035767;28;20384;-65
2021/06/14 10:43:38;;;;;;;1.80;1.70;;;34.30;40.40;;;;;;5032574;28;20388;-64
2021/06/14 10:46:04;;;;;;;2.30;2.20;;;34.40;41.10;;;;;;5017026;28;20764;-65
2021/06/14 10:48:34;;;;;;;2.43;2.33;;;33.90;41.60;;;;;;5033599;28;20445;-65
2021/06/14 10:51:01;;;;;;;2.00;1.90;;;33.90;41.20;;;;;;5035032;28;20178;-66
2021/06/14 10:53:30;;;;;;;2.30;2.10;;;33.70;40.60;;;;;;5034242;28;20391;-65
2021/06/14 10:55:57;;;;;;;2.33;2.23;;;33.70;41.00;;;;;;5034893;28;20488;-64
2021/06/14 10:58:23;;;;;;;2.43;2.20;;;33.70;41.40;;;;;;5032215;28;20431;-64
2021/06/14 11:01:04;;;;;;;2.40;2.30;;;33.50;41.80;;;;;;5013793;28;20470;-67
2021/06/14 11:03:41;;;;;;;2.40;2.20;;;33.60;41.90;;;;;;5023716;28;20425;-65
2021/06/14 11:06:27;;;;;;;1.70;1.60;;;33.60;41.40;;;;;;5015194;28;20412;-66
2021/06/14 11:09:01;;;;;;;2.03;1.93;;;33.40;41.80;;;;;;5015589;28;20404;-65
2021/06/14 11:11:27;;;;;;;2.00;1.90;;;33.00;41.70;;;;;;5005425;28;20400;-64
2021/06/14 11:13:54;;;;;;;2.47;1.67;;;32.40;41.90;;;;;;5017223;28;20466;-64
2021/06/14 11:16:20;;;;;;;1.97;1.87;;;31.40;43.90;;;;;;5017535;28;20405;-64
2021/06/14 11:18:49;;;;;;;2.10;2.00;;;30.30;45.90;;;;;;5034824;28;20550;-66
2021/06/14 11:21:17;;;;;;;2.50;2.30;;;29.50;45.50;;;;;;5035103;28;20944;-64
2021/06/14 11:23:47;;;;;;;1.80;1.70;;;28.90;46.70;;;;;;5035156;28;20450;-65
2021/06/14 11:26:28;;;;;;;1.50;1.40;;;28.20;47.20;;;;;;5034692;28;20760;-65
2021/06/14 11:28:55;;;;;;;1.67;1.57;;;27.60;49.30;;;;;;5017286;28;20522;-66
2021/06/14 11:31:26;;;;;;;1.80;1.70;;;27.20;48.30;;;;;;5034891;28;20485;-67
2021/06/14 11:33:54;;;;;;;1.83;1.73;;;27.10;49.90;;;;;;5034869;28;20942;-65
2021/06/14 11:36:19;;;;;;;1.37;1.30;;;26.90;50.50;;;;;;5034406;28;20441;-66
2021/06/14 11:38:46;;;;;;;2.60;2.00;;;26.80;50.30;;;;;;5034413;28;20863;-65
2021/06/14 11:41:12;;;;;;;1.87;1.77;;;26.70;50.70;;;;;;5034314;28;20186;-66
2021/06/14 11:43:38;;;;;;;1.70;1.60;;;26.60;50.80;;;;;;5034365;28;20787;-65
2021/06/14 11:46:18;;;;;;;2.00;1.90;;;26.50;50.50;;;;;;5034186;28;20189;-65
2021/06/14 11:48:48;;;;;;;2.03;1.90;;;26.30;51.30;;;;;;5034581;28;20288;-66
2021/06/14 11:51:18;;;;;;;1.97;1.87;;;26.30;53.80;;;;;;5034403;28;20412;-65
2021/06/14 11:53:53;;;;;;;1.90;1.60;;;26.30;54.70;;;;;;5034648;28;20779;-66
2021/06/14 11:56:21;;;;;;;1.60;1.50;;;26.40;52.00;;;;;;5034048;28;20859;-65
2021/06/14 11:58:57;;;;;;;2.57;2.00;;;26.30;52.10;;;;;;5034210;28;20487;-64
2021/06/14 12:01:27;;;;;;;2.40;1.63;;;26.30;51.70;;;;;;5034483;28;20413;-66
2021/06/14 12:04:00;;;;;;;2.30;2.10;;;26.20;52.00;;;;;;5034266;28;20397;-65
2021/06/14 12:06:27;;;;;;;4.70;1.73;;;26.10;53.60;;;;;;5033689;28;20412;-65
2021/06/14 12:09:05;;;;;;;2.10;1.93;;;26.10;53.00;;;;;;5034140;28;21001;-65
2021/06/14 12:11:31;;;;;;;1.53;1.40;;;26.20;53.30;;;;;;5033967;28;20420;-67
2021/06/14 12:13:56;;;;;;;2.30;1.80;;;26.30;53.50;;;;;;5034203;28;20928;-66
2021/06/14 12:16:25;;;;;;;1.67;1.57;;;26.50;53.00;;;;;;5033666;28;20185;-66
2021/06/14 12:19:00;;;;;;;1.83;1.73;;;26.60;52.90;;;;;;5033666;28;20229;-64
2021/06/14 12:21:26;;;;;;;3.30;1.87;;;26.60;51.30;;;;;;5033837;28;20412;-65
2021/06/14 12:23:52;;;;;;;2.13;1.93;;;26.50;52.00;;;;;;5033887;28;20412;-65
2021/06/14 12:26:18;;;;;;;1.83;1.73;;;26.50;53.70;;;;;;5031966;28;20676;-66
2021/06/14 12:28:43;;;;;;;1.83;1.73;;;26.50;52.50;;;;;;5023344;28;20455;-65
2021/06/14 12:31:14;;;;;;;2.07;1.70;;;26.50;51.50;;;;;;5033556;28;20205;-63
2021/06/14 12:33:44;;;;;;;1.50;1.40;;;26.50;52.00;;;;;;5025081;28;20182;-64
2021/06/14 12:36:14;;;;;;;2.20;2.00;;;26.60;52.70;;;;;;5033469;28;20470;-63
2021/06/14 12:38:50;;;;;;;2.47;1.77;;;26.70;52.90;;;;;;5031539;28;20803;-65
2021/06/14 12:41:17;;;;;;;2.77;1.63;;;26.60;52.60;;;;;;5022338;28;20765;-65
2021/06/14 12:43:43;;;;;;;2.03;1.80;;;26.60;51.70;;;;;;5032054;28;20428;-63
2021/06/14 12:46:08;;;;;;;1.80;1.70;;;26.60;51.40;;;;;;5033358;28;20783;-65
2021/06/14 12:48:34;;;;;;;1.70;1.60;;;26.60;52.10;;;;;;5033647;28;20624;-64
2021/06/14 12:51:00;;;;;;;2.57;2.33;;;26.70;51.70;;;;;;5033481;28;20170;-64
2021/06/14 12:53:28;;;;;;;2.67;2.10;;;26.80;51.70;;;;;;5033215;28;20253;-64
2021/06/14 12:56:00;;;;;;;3.00;2.07;;;26.90;53.80;;;;;;5032785;28;20556;-64
2021/06/14 12:58:28;;;;;;;1.77;1.67;;;27.00;52.00;;;;;;5026898;28;20468;-64